createdAt,value
2018-03-20T00:01:30.875Z,-0.80
2018-03-20T00:03:59.142Z,-0.80
2018-03-20T00:06:26.630Z,-0.80
2018-03-20T00:08:54.858Z,-0.80
2018-03-20T00:11:22.336Z,-0.80
2018-03-20T00:13:49.821Z,-0.80
2018-03-20T00:16:17.348Z,-0.80
2018-03-20T00:18:45.898Z,-0.80
2018-03-20T00:21:13.367Z,-0.80
2018-03-20T00:23:40.867Z,-0.80
2018-03-20T00:26:09.103Z,-0.80
2018-03-20T00:28:36.594Z,-0.80
2018-03-20T00:31:04.832Z,-0.80
2018-03-20T00:33:32.299Z,-0.80
2018-03-20T00:35:59.795Z,-0.80
2018-03-20T00:38:27.263Z,-0.80
2018-03-20T00:40:54.743Z,-0.80
2018-03-20T00:43:22.216Z,-0.80
2018-03-20T00:45:49.773Z,-0.90
2018-03-20T00:48:17.280Z,-0.80
2018-03-20T00:50:44.749Z,-0.90
2018-03-20T00:53:12.210Z,-0.90
2018-03-20T00:55:39.815Z,-0.90
2018-03-20T00:58:07.270Z,-0.90
2018-03-20T01:00:34.748Z,-1.00
2018-03-20T01:03:02.269Z,-1.00
2018-03-20T01:05:29.725Z,-1.00
2018-03-20T01:07:57.191Z,-1.00
2018-03-20T01:10:24.747Z,-1.00
2018-03-20T01:12:52.215Z,-1.10
2018-03-20T01:15:20.488Z,-1.10
2018-03-20T01:17:48.023Z,-1.20
2018-03-20T01:20:15.517Z,-1.10
2018-03-20T01:22:43.770Z,-1.20
2018-03-20T01:25:11.240Z,-1.20
2018-03-20T01:27:39.500Z,-1.30
2018-03-20T01:30:06.967Z,-1.30
2018-03-20T01:32:35.227Z,-1.40
2018-03-20T01:35:02.785Z,-1.40
2018-03-20T01:37:30.284Z,-1.50
2018-03-20T01:39:57.752Z,-1.60
2018-03-20T01:42:25.228Z,-1.60
2018-03-20T01:44:52.806Z,-1.70
2018-03-20T01:47:20.372Z,-1.80
2018-03-20T01:49:47.924Z,-1.80
2018-03-20T01:52:15.426Z,-1.90
2018-03-20T01:54:42.930Z,-2.00
2018-03-20T01:57:10.394Z,-2.00
2018-03-20T01:59:37.885Z,-2.10
2018-03-20T02:02:06.112Z,-2.20
2018-03-20T02:04:33.683Z,-2.30
2018-03-20T02:07:01.147Z,-2.30
2018-03-20T02:09:28.611Z,-2.30
2018-03-20T02:11:56.907Z,-2.40
2018-03-20T02:14:25.148Z,-2.40
2018-03-20T02:16:52.702Z,-2.40
2018-03-20T02:19:20.254Z,-2.40
2018-03-20T02:21:47.819Z,-2.50
2018-03-20T02:24:15.383Z,-2.50
2018-03-20T02:26:42.932Z,-2.50
2018-03-20T02:29:10.426Z,-2.60
2018-03-20T02:31:38.671Z,-2.60
2018-03-20T02:34:06.916Z,-2.70
2018-03-20T02:36:34.413Z,-2.70
2018-03-20T02:39:02.678Z,-2.80
2018-03-20T02:41:30.133Z,-2.80
2018-03-20T02:43:57.619Z,-2.90
2018-03-20T02:46:25.141Z,-2.90
2018-03-20T02:48:52.621Z,-2.90
2018-03-20T02:51:20.843Z,-3.00
2018-03-20T02:53:48.427Z,-3.00
2018-03-20T02:56:16.713Z,-3.00
2018-03-20T02:58:44.199Z,-3.00
2018-03-20T03:01:11.652Z,-3.00
2018-03-20T03:03:39.140Z,-3.00
2018-03-20T03:06:06.598Z,-3.10
2018-03-20T03:08:34.124Z,-3.10
2018-03-20T03:11:01.574Z,-3.10
2018-03-20T03:13:29.031Z,-3.10
2018-03-20T03:15:56.556Z,-3.10
2018-03-20T03:18:24.102Z,-3.10
2018-03-20T03:20:51.662Z,-3.10
2018-03-20T03:23:19.895Z,-3.10
2018-03-20T03:25:47.356Z,-3.10
2018-03-20T03:28:14.834Z,-3.10
2018-03-20T03:30:42.301Z,-3.00
2018-03-20T03:33:09.772Z,-2.90
2018-03-20T03:35:37.235Z,-2.90
2018-03-20T03:38:05.491Z,-2.70
2018-03-20T03:40:32.962Z,-2.80
2018-03-20T03:43:00.507Z,-2.70
2018-03-20T03:45:27.996Z,-2.70
2018-03-20T03:47:56.214Z,-2.70
2018-03-20T03:50:23.756Z,-2.70
2018-03-20T03:52:51.360Z,-2.70
2018-03-20T03:55:18.844Z,-2.70
2018-03-20T03:57:46.374Z,-2.70
2018-03-20T04:00:13.859Z,-2.70
2018-03-20T04:02:41.388Z,-2.70
2018-03-20T04:05:09.611Z,-2.60
2018-03-20T04:07:37.102Z,-2.70
2018-03-20T04:10:06.821Z,-2.60
2018-03-20T04:12:34.284Z,-2.60
2018-03-20T04:15:02.595Z,-2.60
2018-03-20T04:17:30.093Z,-2.60
2018-03-20T04:19:57.653Z,-2.60
2018-03-20T04:22:25.217Z,-2.60
2018-03-20T04:24:52.779Z,-2.60
2018-03-20T04:27:20.334Z,-2.60
2018-03-20T04:29:48.603Z,-2.70
2018-03-20T04:32:16.171Z,-2.70
2018-03-20T04:34:43.726Z,-2.80
2018-03-20T04:37:11.288Z,-2.80
2018-03-20T04:39:38.846Z,-2.80
2018-03-20T04:42:06.320Z,-2.90
2018-03-20T04:44:36.246Z,-3.00
2018-03-20T04:47:04.468Z,-3.00
2018-03-20T04:49:32.050Z,-3.00
2018-03-20T04:51:59.544Z,-3.00
2018-03-20T04:54:27.053Z,-3.10
2018-03-20T04:56:54.568Z,-3.10
2018-03-20T04:59:22.045Z,-3.10
2018-03-20T05:01:49.529Z,-3.20
2018-03-20T05:04:16.989Z,-3.20
2018-03-20T05:06:44.535Z,-3.20
2018-03-20T05:09:11.993Z,-3.10
2018-03-20T05:11:39.470Z,-3.10
2018-03-20T05:14:07.734Z,-3.10
2018-03-20T05:16:35.189Z,-3.10
2018-03-20T05:22:09.505Z,-3.10
2018-03-20T05:24:39.861Z,-3.10
2018-03-20T05:27:08.428Z,-3.10
2018-03-20T05:29:35.914Z,-3.10
2018-03-20T05:32:04.146Z,-3.10
2018-03-20T05:34:31.625Z,-3.10
2018-03-20T05:36:59.101Z,-3.10
2018-03-20T05:39:26.579Z,-3.10
2018-03-20T05:41:54.082Z,-3.10
2018-03-20T05:44:21.531Z,-3.10
2018-03-20T05:49:55.935Z,-3.00
2018-03-20T05:52:23.422Z,-3.00
2018-03-20T05:54:50.895Z,-3.00
2018-03-20T05:57:18.390Z,-3.00
2018-03-20T05:59:45.879Z,-3.00
2018-03-20T06:02:13.328Z,-3.00
2018-03-20T06:04:40.828Z,-2.90
2018-03-20T06:07:09.083Z,-2.80
2018-03-20T06:09:36.568Z,-2.80
2018-03-20T06:12:04.021Z,-2.70
2018-03-20T06:14:32.266Z,-2.70
2018-03-20T06:16:59.730Z,-2.70
2018-03-20T06:19:27.210Z,-2.70
2018-03-20T06:21:55.502Z,-2.60
2018-03-20T06:24:23.061Z,-2.60
2018-03-20T06:26:50.571Z,-2.50
2018-03-20T06:29:18.822Z,-2.50
2018-03-20T06:31:46.302Z,-2.60
2018-03-20T06:34:13.781Z,-2.60
2018-03-20T06:36:42.026Z,-2.50
2018-03-20T06:39:09.516Z,-2.50
2018-03-20T06:41:37.769Z,-2.50
2018-03-20T06:44:05.288Z,-2.50
2018-03-20T06:46:32.778Z,-2.40
2018-03-20T06:49:00.331Z,-2.40
2018-03-20T06:51:27.894Z,-2.30
2018-03-20T06:53:55.370Z,-2.20
2018-03-20T06:56:23.606Z,-2.10
2018-03-20T06:58:51.185Z,-2.10
2018-03-20T07:01:19.412Z,-2.00
2018-03-20T07:03:46.909Z,-2.00
2018-03-20T07:06:14.438Z,-2.00
2018-03-20T07:08:42.653Z,-2.00
2018-03-20T07:11:10.887Z,-1.90
2018-03-20T07:13:38.376Z,-2.00
2018-03-20T07:16:06.624Z,-1.80
2018-03-20T07:18:34.081Z,-1.90
2018-03-20T07:21:01.603Z,-1.80
2018-03-20T07:23:29.072Z,-1.70
2018-03-20T07:25:56.585Z,-1.70
2018-03-20T07:28:24.178Z,-1.60
2018-03-20T07:30:51.613Z,-1.60
2018-03-20T07:33:19.849Z,-1.40
2018-03-20T07:35:47.343Z,-1.50
2018-03-20T07:38:15.614Z,-1.30
2018-03-20T07:40:43.871Z,-1.20
2018-03-20T07:43:11.337Z,-1.20
2018-03-20T07:45:39.598Z,-1.10
2018-03-20T07:48:07.064Z,-1.10
2018-03-20T07:50:34.549Z,-1.00
2018-03-20T07:53:02.046Z,-1.00
2018-03-20T07:55:29.505Z,-1.00
2018-03-20T07:57:56.971Z,-1.00
2018-03-20T08:00:24.466Z,-1.00
2018-03-20T08:02:52.002Z,-1.00
2018-03-20T08:05:20.292Z,-1.00
2018-03-20T08:07:48.518Z,-1.00
2018-03-20T08:10:15.981Z,-1.00
2018-03-20T08:12:43.473Z,-0.90
2018-03-20T08:15:11.739Z,-0.90
2018-03-20T08:17:39.203Z,-0.90
2018-03-20T08:20:07.458Z,-0.90
2018-03-20T08:22:34.950Z,-0.90
2018-03-20T08:25:02.420Z,-0.80
2018-03-20T08:27:29.907Z,-0.80
2018-03-20T08:29:57.390Z,-0.70
2018-03-20T08:32:24.882Z,-0.70
2018-03-20T08:34:52.337Z,-0.70
2018-03-20T08:37:19.830Z,-0.70
2018-03-20T08:39:47.319Z,-0.70
2018-03-20T08:42:15.542Z,-0.60
2018-03-20T08:44:43.127Z,-0.60
2018-03-20T08:47:10.868Z,-0.60
2018-03-20T08:49:38.374Z,-0.60
2018-03-20T08:52:06.667Z,-0.50
2018-03-20T08:54:34.175Z,-0.50
2018-03-20T08:57:03.597Z,-0.50
2018-03-20T08:59:31.882Z,-0.50
2018-03-20T09:01:59.370Z,-0.50
2018-03-20T09:04:26.850Z,-0.50
2018-03-20T09:06:54.439Z,-0.60
2018-03-20T09:09:22.675Z,-0.70
2018-03-20T09:11:50.190Z,-0.80
2018-03-20T09:14:18.442Z,-0.60
2018-03-20T09:16:46.939Z,-0.50
2018-03-20T09:19:15.195Z,-0.40
2018-03-20T09:21:42.667Z,-0.40
2018-03-20T09:24:11.475Z,-0.20
2018-03-20T09:26:39.925Z,-0.30
2018-03-20T09:29:08.202Z,-0.10
2018-03-20T09:31:36.485Z,-0.10
2018-03-20T09:34:04.757Z,-0.10
2018-03-20T09:36:32.297Z,-0.10
2018-03-20T09:38:59.818Z,-0.10
2018-03-20T09:41:27.278Z,-0.20
2018-03-20T09:43:54.782Z,-0.30
2018-03-20T09:49:07.969Z,-0.30
2018-03-20T09:51:36.218Z,-0.20
2018-03-20T09:54:03.736Z,-0.20
2018-03-20T09:56:32.795Z,-0.10
2018-03-20T09:59:00.312Z,-0.10
2018-03-20T10:01:28.586Z,-0.10
2018-03-20T10:03:56.132Z,-0.10
2018-03-20T10:06:23.641Z,-0.10
2018-03-20T10:08:51.461Z,-0.10
2018-03-20T10:11:20.088Z,-0.10
2018-03-20T10:13:47.573Z,-0.10
2018-03-20T10:16:15.415Z,0.00
2018-03-20T10:18:43.994Z,0.10
2018-03-20T10:21:11.557Z,0.10
2018-03-20T10:23:39.188Z,0.20
2018-03-20T10:26:07.127Z,0.20
2018-03-20T10:28:34.776Z,0.10
2018-03-20T10:31:02.331Z,0.10
2018-03-20T10:33:29.851Z,0.10
2018-03-20T10:35:57.333Z,0.10
2018-03-20T10:38:24.825Z,0.30
2018-03-20T10:40:52.296Z,0.40
2018-03-20T10:43:19.771Z,0.50
2018-03-20T10:45:47.294Z,0.70
2018-03-20T10:48:15.522Z,0.80
2018-03-20T10:50:43.092Z,0.80
2018-03-20T10:53:11.118Z,0.80
2018-03-20T10:55:38.571Z,0.90
2018-03-20T10:58:06.086Z,0.90
2018-03-20T11:00:38.336Z,1.00
2018-03-20T11:03:08.458Z,1.30
2018-03-20T11:05:35.921Z,1.30
2018-03-20T11:08:03.376Z,1.50
2018-03-20T11:10:30.991Z,1.60
2018-03-20T11:12:58.496Z,1.70
2018-03-20T11:15:25.953Z,1.80
2018-03-20T11:17:54.230Z,1.80
2018-03-20T11:20:21.781Z,1.80
2018-03-20T11:22:49.245Z,1.80
2018-03-20T11:25:16.727Z,1.80
2018-03-20T11:27:44.257Z,1.90
2018-03-20T11:30:11.742Z,2.10
2018-03-20T11:32:39.203Z,2.30
2018-03-20T11:35:06.754Z,2.50
2018-03-20T11:37:34.298Z,2.70
2018-03-20T11:40:02.573Z,2.60
2018-03-20T11:42:30.093Z,2.60
2018-03-20T11:44:57.572Z,2.50
2018-03-20T11:47:25.066Z,2.60
2018-03-20T11:49:52.577Z,2.60
2018-03-20T11:52:20.071Z,2.60
2018-03-20T11:54:48.314Z,2.80
2018-03-20T11:57:15.778Z,2.80
2018-03-20T11:59:43.271Z,2.80
2018-03-20T12:02:10.764Z,2.90
2018-03-20T12:04:38.233Z,2.90
2018-03-20T12:07:05.740Z,3.00
2018-03-20T12:09:49.844Z,3.00
2018-03-20T12:12:17.309Z,3.00
2018-03-20T12:14:44.862Z,3.00
2018-03-20T12:17:12.339Z,3.20
2018-03-20T12:19:39.789Z,3.30
2018-03-20T12:22:08.011Z,3.50
2018-03-20T12:24:35.521Z,3.50
2018-03-20T12:27:03.729Z,3.70
2018-03-20T12:29:31.190Z,3.60
2018-03-20T12:31:58.660Z,3.70
2018-03-20T12:34:26.112Z,3.70
2018-03-20T12:36:53.573Z,3.70
2018-03-20T12:39:21.063Z,3.80
2018-03-20T12:41:48.507Z,3.90
2018-03-20T12:44:15.972Z,4.00
2018-03-20T12:46:43.454Z,4.20
2018-03-20T12:49:11.692Z,4.70
2018-03-20T12:51:39.159Z,4.70
2018-03-20T12:54:07.526Z,4.70
2018-03-20T12:56:35.078Z,4.70
2018-03-20T12:59:02.539Z,4.70
2018-03-20T13:01:30.053Z,4.70
2018-03-20T13:03:58.224Z,4.40
2018-03-20T13:06:25.713Z,4.40
2018-03-20T13:08:53.199Z,4.30
2018-03-20T13:11:21.713Z,4.10
2018-03-20T13:13:49.302Z,4.00
2018-03-20T13:16:16.792Z,4.00
2018-03-20T13:18:45.056Z,4.00
2018-03-20T13:21:12.638Z,4.00
2018-03-20T13:23:40.942Z,3.90
2018-03-20T13:26:10.111Z,3.80
2018-03-20T13:28:47.594Z,3.70
2018-03-20T13:31:20.562Z,3.60
2018-03-20T13:33:49.856Z,3.50
2018-03-20T13:36:17.472Z,3.50
2018-03-20T13:38:44.962Z,3.50
2018-03-20T13:41:12.442Z,3.50
2018-03-20T13:43:40.680Z,3.50
2018-03-20T13:46:08.139Z,3.50
2018-03-20T13:48:35.707Z,3.70
2018-03-20T13:51:03.279Z,3.80
2018-03-20T13:53:30.738Z,3.80
2018-03-20T13:55:58.206Z,3.70
2018-03-20T13:58:26.450Z,3.40
2018-03-20T14:00:53.917Z,3.40
2018-03-20T14:03:21.473Z,3.40
2018-03-20T14:05:49.027Z,3.40
2018-03-20T14:08:16.602Z,3.40
2018-03-20T14:10:46.689Z,3.60
2018-03-20T14:13:14.262Z,3.60
2018-03-20T14:15:41.813Z,3.70
2018-03-20T14:18:09.368Z,3.70
2018-03-20T14:20:37.919Z,3.70
2018-03-20T14:23:05.406Z,3.70
2018-03-20T14:25:32.878Z,3.60
2018-03-20T14:28:00.428Z,3.40
2018-03-20T14:30:27.886Z,3.30
2018-03-20T14:32:55.360Z,3.10
2018-03-20T14:35:23.588Z,2.90
2018-03-20T14:37:51.057Z,2.80
2018-03-20T14:40:19.304Z,2.60
2018-03-20T14:42:46.753Z,2.60
2018-03-20T14:45:14.219Z,2.50
2018-03-20T14:47:41.677Z,2.40
2018-03-20T14:50:09.167Z,2.30
2018-03-20T14:52:36.716Z,2.20
2018-03-20T14:55:04.279Z,2.10
2018-03-20T14:57:31.725Z,2.00
2018-03-20T14:59:59.250Z,1.80
2018-03-20T15:02:26.723Z,1.80
2018-03-20T15:04:54.178Z,1.60
2018-03-20T15:07:21.675Z,1.50
2018-03-20T15:09:49.215Z,1.40
2018-03-20T15:12:16.678Z,1.40
2018-03-20T15:14:44.143Z,1.30
2018-03-20T15:17:11.683Z,1.30
2018-03-20T15:19:41.174Z,1.30
2018-03-20T15:22:08.647Z,1.20
2018-03-20T15:24:36.264Z,1.20
2018-03-20T15:27:03.730Z,1.20
2018-03-20T15:29:31.235Z,1.20
2018-03-20T15:31:58.783Z,1.20
2018-03-20T15:34:26.239Z,1.20
2018-03-20T15:36:54.480Z,1.10
2018-03-20T15:39:21.947Z,1.10
2018-03-20T15:41:49.510Z,1.20
2018-03-20T15:44:16.980Z,1.10
2018-03-20T15:46:44.459Z,1.10
2018-03-20T15:49:12.669Z,1.10
2018-03-20T15:51:40.137Z,1.10
2018-03-20T15:54:07.613Z,1.10
2018-03-20T15:56:35.169Z,1.10
2018-03-20T15:59:02.631Z,1.10
2018-03-20T16:01:30.119Z,1.00
2018-03-20T16:03:57.586Z,1.00
2018-03-20T16:06:25.036Z,1.00
2018-03-20T16:08:52.564Z,0.90
2018-03-20T16:11:20.855Z,0.90
2018-03-20T16:13:48.685Z,0.90
2018-03-20T16:16:16.250Z,0.90
2018-03-20T16:18:43.724Z,0.80
2018-03-20T16:21:11.962Z,0.80
2018-03-20T16:23:39.562Z,0.80
2018-03-20T16:26:07.049Z,0.80
2018-03-20T16:28:34.537Z,0.70
2018-03-20T16:31:02.018Z,0.70
2018-03-20T16:33:30.284Z,0.60
2018-03-20T16:35:57.829Z,0.60
2018-03-20T16:38:25.569Z,0.50
2018-03-20T16:40:53.032Z,0.50
2018-03-20T16:43:21.297Z,0.40
2018-03-20T16:45:48.777Z,0.40
2018-03-20T16:48:16.315Z,0.40
2018-03-20T16:50:46.931Z,0.30
2018-03-20T16:53:14.410Z,0.30
2018-03-20T16:55:41.897Z,0.30
2018-03-20T16:58:10.127Z,0.40
2018-03-20T17:00:37.601Z,0.30
2018-03-20T17:03:05.061Z,0.30
2018-03-20T17:05:32.526Z,0.30
2018-03-20T17:08:00.014Z,0.30
2018-03-20T17:10:28.235Z,0.30
2018-03-20T17:12:56.474Z,0.30
2018-03-20T17:15:23.956Z,0.30
2018-03-20T17:17:51.418Z,0.30
2018-03-20T17:20:18.896Z,0.30
2018-03-20T17:22:46.389Z,0.30
2018-03-20T17:25:13.845Z,0.30
2018-03-20T17:27:42.087Z,0.30
2018-03-20T17:30:09.571Z,0.30
2018-03-20T17:32:37.059Z,0.30
2018-03-20T17:35:04.518Z,0.30
2018-03-20T17:37:31.997Z,0.30
2018-03-20T17:39:59.465Z,0.30
2018-03-20T17:42:26.922Z,0.30
2018-03-20T17:44:54.396Z,0.30
2018-03-20T17:47:22.643Z,0.30
2018-03-20T17:49:50.103Z,0.30
2018-03-20T17:52:17.574Z,0.30
2018-03-20T17:54:45.801Z,0.30
2018-03-20T17:57:13.271Z,0.30
2018-03-20T17:59:40.778Z,0.30
2018-03-20T18:02:08.205Z,0.30
2018-03-20T18:04:35.671Z,0.30
2018-03-20T18:07:03.180Z,0.30
2018-03-20T18:09:30.673Z,0.30
2018-03-20T18:11:58.138Z,0.30
2018-03-20T18:14:26.398Z,0.40
2018-03-20T18:16:53.864Z,0.30
2018-03-20T18:19:21.331Z,0.40
2018-03-20T18:21:49.579Z,0.40
2018-03-20T18:24:17.397Z,0.30
2018-03-20T18:26:44.881Z,0.40
2018-03-20T18:29:12.375Z,0.40
2018-03-20T18:31:39.845Z,0.30
2018-03-20T18:34:08.071Z,0.40
2018-03-20T18:36:35.562Z,0.40
2018-03-20T18:39:03.017Z,0.40
2018-03-20T18:41:30.475Z,0.40
2018-03-20T18:43:58.793Z,0.40
2018-03-20T18:46:26.265Z,0.40
2018-03-20T18:48:53.719Z,0.40
2018-03-20T18:51:21.188Z,0.40
2018-03-20T18:53:48.649Z,0.40
2018-03-20T18:56:16.136Z,0.40
2018-03-20T18:58:44.373Z,0.40
2018-03-20T19:01:14.339Z,0.40
2018-03-20T19:03:42.035Z,0.40
2018-03-20T19:06:09.512Z,0.40
2018-03-20T19:08:37.249Z,0.40
2018-03-20T19:11:04.723Z,0.40
2018-03-20T19:13:32.188Z,0.40
2018-03-20T19:15:59.654Z,0.30
2018-03-20T19:18:27.105Z,0.30
2018-03-20T19:20:54.599Z,0.30
2018-03-20T19:23:22.138Z,0.30
2018-03-20T19:25:50.683Z,0.30
2018-03-20T19:28:18.914Z,0.30
2018-03-20T19:30:46.808Z,0.30
2018-03-20T19:33:14.336Z,0.30
2018-03-20T19:35:41.946Z,0.30
2018-03-20T19:38:09.402Z,0.30
2018-03-20T19:40:36.866Z,0.30
2018-03-20T19:43:04.429Z,0.30
2018-03-20T19:45:31.882Z,0.30
2018-03-20T19:47:59.350Z,0.30
2018-03-20T19:50:27.601Z,0.30
2018-03-20T19:52:55.072Z,0.20
2018-03-20T19:55:22.586Z,0.30
2018-03-20T19:57:50.067Z,0.30
2018-03-20T20:00:17.549Z,0.30
2018-03-20T20:02:45.806Z,0.30
2018-03-20T20:05:13.275Z,0.30
2018-03-20T20:07:40.784Z,0.30
2018-03-20T20:10:08.241Z,0.30
2018-03-20T20:12:35.741Z,0.30
2018-03-20T20:15:03.207Z,0.30
2018-03-20T20:17:31.477Z,0.30
2018-03-20T20:19:58.950Z,0.30
2018-03-20T20:22:26.437Z,0.30
2018-03-20T20:24:53.887Z,0.30
2018-03-20T20:27:21.378Z,0.30
2018-03-20T20:29:48.840Z,0.30
2018-03-20T20:32:16.318Z,0.30
2018-03-20T20:34:44.578Z,0.30
2018-03-20T20:37:12.073Z,0.30
2018-03-20T20:39:39.605Z,0.30
2018-03-20T20:42:07.022Z,0.20
2018-03-20T20:44:34.513Z,0.30
2018-03-20T20:47:02.794Z,0.30
2018-03-20T20:49:31.013Z,0.30
2018-03-20T20:51:58.525Z,0.30
2018-03-20T20:54:26.750Z,0.30
2018-03-20T20:56:54.240Z,0.30
2018-03-20T20:59:21.708Z,0.30
2018-03-20T21:01:49.950Z,0.30
2018-03-20T21:04:17.440Z,0.30
2018-03-20T21:06:45.691Z,0.30
2018-03-20T21:09:13.154Z,0.30
2018-03-20T21:11:40.637Z,0.30
2018-03-20T21:14:08.096Z,0.30
2018-03-20T21:16:35.606Z,0.30
2018-03-20T21:19:03.055Z,0.30
2018-03-20T21:21:30.682Z,0.30
2018-03-20T21:23:58.460Z,0.30
2018-03-20T21:26:26.449Z,0.30
2018-03-20T21:28:53.991Z,0.30
2018-03-20T21:31:21.463Z,0.30
2018-03-20T21:33:48.946Z,0.30
2018-03-20T21:36:17.219Z,0.30
2018-03-20T21:38:44.659Z,0.30
2018-03-20T21:41:12.128Z,0.30
2018-03-20T21:43:39.586Z,0.30
2018-03-20T21:46:07.836Z,0.30
2018-03-20T21:48:35.321Z,0.30
2018-03-20T21:51:03.567Z,0.30
2018-03-20T21:53:31.020Z,0.30
2018-03-20T21:55:58.503Z,0.30
2018-03-20T21:58:26.752Z,0.30
2018-03-20T22:00:54.220Z,0.30
2018-03-20T22:03:21.697Z,0.30
2018-03-20T22:05:50.040Z,0.30
2018-03-20T22:08:17.511Z,0.30
2018-03-20T22:10:44.978Z,0.30
2018-03-20T22:13:13.244Z,0.30
2018-03-20T22:15:40.709Z,0.30
2018-03-20T22:18:08.190Z,0.30
2018-03-20T22:20:35.674Z,0.30
2018-03-20T22:23:03.145Z,0.30
2018-03-20T22:25:30.625Z,0.30
2018-03-20T22:27:58.106Z,0.30
2018-03-20T22:30:25.652Z,0.30
2018-03-20T22:32:53.067Z,0.30
2018-03-20T22:35:20.560Z,0.40
2018-03-20T22:37:48.788Z,0.40
2018-03-20T22:40:16.262Z,0.40
2018-03-20T22:42:43.756Z,0.40
2018-03-20T22:45:11.987Z,0.40
2018-03-20T22:47:39.479Z,0.40
2018-03-20T22:50:07.702Z,0.40
2018-03-20T22:52:35.176Z,0.40
2018-03-20T22:55:02.639Z,0.40
2018-03-20T22:57:30.129Z,0.40
2018-03-20T22:59:58.359Z,0.40
2018-03-20T23:02:25.827Z,0.40
2018-03-20T23:04:53.310Z,0.40
2018-03-20T23:07:21.552Z,0.40
2018-03-20T23:09:49.033Z,0.40
2018-03-20T23:12:17.270Z,0.40
2018-03-20T23:14:44.754Z,0.40
2018-03-20T23:17:12.238Z,0.30
2018-03-20T23:19:39.739Z,0.30
2018-03-20T23:22:07.202Z,0.30
2018-03-20T23:24:34.675Z,0.20
2018-03-20T23:27:02.925Z,0.20
2018-03-20T23:29:30.386Z,0.20
2018-03-20T23:31:57.854Z,0.20
2018-03-20T23:34:25.343Z,0.20
2018-03-20T23:36:53.564Z,0.20
2018-03-20T23:39:21.151Z,0.20
2018-03-20T23:41:48.609Z,0.30
2018-03-20T23:44:16.071Z,0.30
2018-03-20T23:46:44.317Z,0.30
2018-03-20T23:49:11.794Z,0.30
2018-03-20T23:51:39.269Z,0.30
2018-03-20T23:54:07.736Z,0.30
2018-03-20T23:56:35.215Z,0.30
2018-03-20T23:59:02.673Z,0.30
